GMMX/RAK METAR and TAF weather

Enter ICAO airport designator
Station Type Date Time Source
GMMX METAR 2019/02/21 12:30 UTC NOAA

GMMX 211230Z 03004KT 340V100 CAVOK 22/04 Q1023 NOSIG


Station Type Date Time Source
GMMX Decoded METAR 2019/02/21 12:30 UTC NOAA

Marrakech, Morocco (GMMX) 31-37N 008-02W 466M
Feb 21, 2019 - 07:30 AM EST / 2019.02.21 1230 UTC
Wind: from the NNE (030 degrees) at 5 MPH (4 KT) (direction variable):0
Visibility: greater than 7 mile(s):0
Temperature: 71 F (22 C)
Dew Point: 39 F (4 C)
Relative Humidity: 30%
Pressure (altimeter): 30.21 in. Hg (1023 hPa)
ob: GMMX 211230Z 03004KT 340V100 CAVOK 22/04 Q1023 NOSIG
cycle: 12

Station Type Date Time Source
GMMX TAF 2019/02/21 12:27 UTC NOAA

TAF TAF GMMX 211100Z 2112/2218 06006KT 8000 NSC


Example: see airport list